sensor_id;sensor_type;location;lat;lon;timestamp;P1;durP1;ratioP1;P2;durP2;ratioP2
46815;SDS011;32787;53.316;8.670;2023-02-15T00:01:51;49.03;;;20.83;;
46815;SDS011;32787;53.316;8.670;2023-02-15T00:04:18;67.72;;;22.45;;
46815;SDS011;32787;53.316;8.670;2023-02-15T00:06:46;49.25;;;20.27;;
46815;SDS011;32787;53.316;8.670;2023-02-15T00:09:12;41.85;;;20.75;;
46815;SDS011;32787;53.316;8.670;2023-02-15T00:11:38;49.10;;;20.75;;
46815;SDS011;32787;53.316;8.670;2023-02-15T00:14:08;40.72;;;20.10;;
46815;SDS011;32787;53.316;8.670;2023-02-15T00:16:43;39.47;;;18.13;;
46815;SDS011;32787;53.316;8.670;2023-02-15T00:19:10;39.03;;;18.90;;
46815;SDS011;32787;53.316;8.670;2023-02-15T00:21:37;39.92;;;18.02;;
46815;SDS011;32787;53.316;8.670;2023-02-15T00:24:06;33.42;;;17.30;;
46815;SDS011;32787;53.316;8.670;2023-02-15T00:26:33;35.13;;;17.10;;
46815;SDS011;32787;53.316;8.670;2023-02-15T00:29:00;32.97;;;15.68;;
46815;SDS011;32787;53.316;8.670;2023-02-15T00:31:29;32.05;;;15.38;;
46815;SDS011;32787;53.316;8.670;2023-02-15T00:34:06;32.67;;;15.88;;
46815;SDS011;32787;53.316;8.670;2023-02-15T00:36:37;27.83;;;14.68;;
46815;SDS011;32787;53.316;8.670;2023-02-15T00:39:03;32.58;;;15.68;;
46815;SDS011;32787;53.316;8.670;2023-02-15T00:41:29;31.77;;;14.80;;
46815;SDS011;32787;53.316;8.670;2023-02-15T00:43:56;33.72;;;15.55;;
46815;SDS011;32787;53.316;8.670;2023-02-15T00:46:21;33.00;;;14.57;;
46815;SDS011;32787;53.316;8.670;2023-02-15T00:48:47;56.22;;;19.10;;
46815;SDS011;32787;53.316;8.670;2023-02-15T00:51:13;153.45;;;24.55;;
46815;SDS011;32787;53.316;8.670;2023-02-15T00:53:38;256.65;;;26.23;;
46815;SDS011;32787;53.316;8.670;2023-02-15T00:56:04;296.83;;;26.80;;
46815;SDS011;32787;53.316;8.670;2023-02-15T00:58:30;241.93;;;24.42;;
46815;SDS011;32787;53.316;8.670;2023-02-15T01:01:01;139.57;;;22.10;;
46815;SDS011;32787;53.316;8.670;2023-02-15T01:03:29;292.10;;;27.38;;
46815;SDS011;32787;53.316;8.670;2023-02-15T01:05:54;266.92;;;24.83;;
46815;SDS011;32787;53.316;8.670;2023-02-15T01:08:20;153.10;;;20.95;;
46815;SDS011;32787;53.316;8.670;2023-02-15T01:10:45;345.95;;;29.20;;
46815;SDS011;32787;53.316;8.670;2023-02-15T01:13:12;213.73;;;26.48;;
46815;SDS011;32787;53.316;8.670;2023-02-15T01:15:39;155.75;;;23.05;;
46815;SDS011;32787;53.316;8.670;2023-02-15T01:18:04;94.60;;;22.15;;
46815;SDS011;32787;53.316;8.670;2023-02-15T01:20:33;251.05;;;26.83;;
46815;SDS011;32787;53.316;8.670;2023-02-15T01:23:01;184.68;;;28.02;;
46815;SDS011;32787;53.316;8.670;2023-02-15T01:25:27;156.65;;;24.48;;
46815;SDS011;32787;53.316;8.670;2023-02-15T01:27:53;148.30;;;24.20;;
46815;SDS011;32787;53.316;8.670;2023-02-15T01:30:18;287.80;;;30.48;;
46815;SDS011;32787;53.316;8.670;2023-02-15T01:32:44;226.13;;;29.45;;
46815;SDS011;32787;53.316;8.670;2023-02-15T01:35:10;161.40;;;26.83;;
46815;SDS011;32787;53.316;8.670;2023-02-15T01:37:36;132.73;;;27.67;;
46815;SDS011;32787;53.316;8.670;2023-02-15T01:40:03;178.80;;;24.88;;
46815;SDS011;32787;53.316;8.670;2023-02-15T01:42:30;197.68;;;27.77;;
46815;SDS011;32787;53.316;8.670;2023-02-15T01:44:56;183.00;;;24.27;;
46815;SDS011;32787;53.316;8.670;2023-02-15T01:47:37;141.95;;;23.98;;
46815;SDS011;32787;53.316;8.670;2023-02-15T01:52:35;182.82;;;24.92;;
46815;SDS011;32787;53.316;8.670;2023-02-15T01:55:06;197.07;;;25.95;;
46815;SDS011;32787;53.316;8.670;2023-02-15T01:57:33;108.47;;;24.23;;
46815;SDS011;32787;53.316;8.670;2023-02-15T02:00:00;168.13;;;25.17;;
46815;SDS011;32787;53.316;8.670;2023-02-15T02:02:28;177.15;;;23.45;;
46815;SDS011;32787;53.316;8.670;2023-02-15T02:04:54;225.40;;;27.30;;
46815;SDS011;32787;53.316;8.670;2023-02-15T02:07:28;162.00;;;26.27;;
46815;SDS011;32787;53.316;8.670;2023-02-15T02:09:56;213.80;;;27.75;;
46815;SDS011;32787;53.316;8.670;2023-02-15T02:12:22;318.63;;;33.78;;
46815;SDS011;32787;53.316;8.670;2023-02-15T02:14:49;151.35;;;27.67;;
46815;SDS011;32787;53.316;8.670;2023-02-15T02:23:08;127.68;;;22.88;;
46815;SDS011;32787;53.316;8.670;2023-02-15T02:31:11;175.70;;;23.60;;
46815;SDS011;32787;53.316;8.670;2023-02-15T02:39:23;86.15;;;21.52;;
46815;SDS011;32787;53.316;8.670;2023-02-15T02:42:12;82.10;;;21.25;;
46815;SDS011;32787;53.316;8.670;2023-02-15T02:44:55;131.27;;;24.60;;
46815;SDS011;32787;53.316;8.670;2023-02-15T02:47:42;102.57;;;22.98;;
46815;SDS011;32787;53.316;8.670;2023-02-15T02:50:16;154.90;;;24.23;;
46815;SDS011;32787;53.316;8.670;2023-02-15T02:52:47;104.50;;;22.90;;
46815;SDS011;32787;53.316;8.670;2023-02-15T02:55:20;150.82;;;24.95;;
46815;SDS011;32787;53.316;8.670;2023-02-15T02:58:05;122.53;;;24.73;;
46815;SDS011;32787;53.316;8.670;2023-02-15T03:01:01;75.72;;;19.25;;
46815;SDS011;32787;53.316;8.670;2023-02-15T03:03:32;87.43;;;21.13;;
46815;SDS011;32787;53.316;8.670;2023-02-15T03:06:03;94.00;;;21.63;;
46815;SDS011;32787;53.316;8.670;2023-02-15T03:08:42;74.18;;;18.65;;
46815;SDS011;32787;53.316;8.670;2023-02-15T03:11:11;57.38;;;19.40;;
46815;SDS011;32787;53.316;8.670;2023-02-15T03:13:37;59.70;;;18.48;;
46815;SDS011;32787;53.316;8.670;2023-02-15T03:16:04;76.43;;;20.50;;
46815;SDS011;32787;53.316;8.670;2023-02-15T03:18:51;85.47;;;19.88;;
46815;SDS011;32787;53.316;8.670;2023-02-15T03:22:10;58.30;;;19.00;;
46815;SDS011;32787;53.316;8.670;2023-02-15T03:24:14;57.50;;;20.20;;
46815;SDS011;32787;53.316;8.670;2023-02-15T03:26:45;54.92;;;20.23;;
46815;SDS011;32787;53.316;8.670;2023-02-15T03:29:13;58.03;;;19.35;;
46815;SDS011;32787;53.316;8.670;2023-02-15T03:31:40;62.65;;;18.80;;
46815;SDS011;32787;53.316;8.670;2023-02-15T03:34:11;53.60;;;18.85;;
46815;SDS011;32787;53.316;8.670;2023-02-15T03:36:44;58.10;;;17.85;;
46815;SDS011;32787;53.316;8.670;2023-02-15T03:41:48;65.30;;;19.35;;
46815;SDS011;32787;53.316;8.670;2023-02-15T03:44:28;52.78;;;18.95;;
46815;SDS011;32787;53.316;8.670;2023-02-15T03:46:58;44.60;;;16.83;;
46815;SDS011;32787;53.316;8.670;2023-02-15T03:49:26;51.65;;;17.55;;
46815;SDS011;32787;53.316;8.670;2023-02-15T03:51:56;45.40;;;17.35;;
46815;SDS011;32787;53.316;8.670;2023-02-15T03:54:26;48.83;;;16.50;;
46815;SDS011;32787;53.316;8.670;2023-02-15T03:57:13;58.05;;;16.83;;
46815;SDS011;32787;53.316;8.670;2023-02-15T04:00:19;68.47;;;17.50;;
46815;SDS011;32787;53.316;8.670;2023-02-15T04:05:39;68.13;;;16.95;;
46815;SDS011;32787;53.316;8.670;2023-02-15T04:08:05;72.97;;;17.95;;
46815;SDS011;32787;53.316;8.670;2023-02-15T04:10:31;39.63;;;16.33;;
46815;SDS011;32787;53.316;8.670;2023-02-15T04:13:15;42.35;;;16.30;;
46815;SDS011;32787;53.316;8.670;2023-02-15T04:15:41;42.30;;;15.95;;
46815;SDS011;32787;53.316;8.670;2023-02-15T04:18:25;39.17;;;15.73;;
46815;SDS011;32787;53.316;8.670;2023-02-15T04:21:09;44.95;;;15.98;;
46815;SDS011;32787;53.316;8.670;2023-02-15T04:23:54;42.15;;;15.50;;
46815;SDS011;32787;53.316;8.670;2023-02-15T04:26:38;34.78;;;15.60;;
46815;SDS011;32787;53.316;8.670;2023-02-15T04:29:03;45.58;;;16.10;;
46815;SDS011;32787;53.316;8.670;2023-02-15T04:31:29;44.22;;;16.33;;
46815;SDS011;32787;53.316;8.670;2023-02-15T04:33:55;47.80;;;17.17;;
46815;SDS011;32787;53.316;8.670;2023-02-15T04:36:20;38.65;;;16.33;;
46815;SDS011;32787;53.316;8.670;2023-02-15T04:38:46;30.25;;;16.13;;
46815;SDS011;32787;53.316;8.670;2023-02-15T04:41:11;33.65;;;16.00;;
46815;SDS011;32787;53.316;8.670;2023-02-15T04:43:38;34.65;;;15.90;;
46815;SDS011;32787;53.316;8.670;2023-02-15T04:46:03;36.85;;;15.57;;
46815;SDS011;32787;53.316;8.670;2023-02-15T04:48:29;49.60;;;16.65;;
46815;SDS011;32787;53.316;8.670;2023-02-15T04:50:55;32.40;;;15.40;;
46815;SDS011;32787;53.316;8.670;2023-02-15T04:53:20;31.75;;;16.05;;
46815;SDS011;32787;53.316;8.670;2023-02-15T04:55:46;30.92;;;15.88;;
46815;SDS011;32787;53.316;8.670;2023-02-15T04:58:12;31.52;;;16.52;;
46815;SDS011;32787;53.316;8.670;2023-02-15T05:00:37;36.20;;;17.73;;
46815;SDS011;32787;53.316;8.670;2023-02-15T05:03:03;40.65;;;16.77;;
46815;SDS011;32787;53.316;8.670;2023-02-15T05:05:29;42.50;;;16.13;;
46815;SDS011;32787;53.316;8.670;2023-02-15T05:07:54;41.45;;;17.02;;
46815;SDS011;32787;53.316;8.670;2023-02-15T05:10:20;53.92;;;16.95;;
46815;SDS011;32787;53.316;8.670;2023-02-15T05:12:46;38.78;;;17.00;;
46815;SDS011;32787;53.316;8.670;2023-02-15T05:15:12;39.58;;;16.15;;
46815;SDS011;32787;53.316;8.670;2023-02-15T05:17:37;36.92;;;17.15;;
46815;SDS011;32787;53.316;8.670;2023-02-15T05:20:03;37.78;;;16.90;;
46815;SDS011;32787;53.316;8.670;2023-02-15T05:22:29;46.63;;;18.25;;
46815;SDS011;32787;53.316;8.670;2023-02-15T05:24:55;39.50;;;17.52;;
46815;SDS011;32787;53.316;8.670;2023-02-15T05:27:39;38.45;;;17.42;;
46815;SDS011;32787;53.316;8.670;2023-02-15T05:30:23;30.42;;;16.40;;
46815;SDS011;32787;53.316;8.670;2023-02-15T05:32:49;36.03;;;17.25;;
46815;SDS011;32787;53.316;8.670;2023-02-15T05:35:14;34.78;;;16.20;;
46815;SDS011;32787;53.316;8.670;2023-02-15T05:37:41;32.67;;;16.27;;
46815;SDS011;32787;53.316;8.670;2023-02-15T05:40:06;32.65;;;16.25;;
46815;SDS011;32787;53.316;8.670;2023-02-15T05:42:32;31.88;;;17.17;;
46815;SDS011;32787;53.316;8.670;2023-02-15T05:44:58;32.75;;;16.98;;
46815;SDS011;32787;53.316;8.670;2023-02-15T05:47:24;31.25;;;16.20;;
46815;SDS011;32787;53.316;8.670;2023-02-15T05:49:50;32.88;;;16.20;;
46815;SDS011;32787;53.316;8.670;2023-02-15T05:52:15;28.92;;;15.30;;
46815;SDS011;32787;53.316;8.670;2023-02-15T05:54:41;28.42;;;13.95;;
46815;SDS011;32787;53.316;8.670;2023-02-15T05:57:06;30.42;;;16.05;;
46815;SDS011;32787;53.316;8.670;2023-02-15T05:59:32;32.92;;;16.75;;
46815;SDS011;32787;53.316;8.670;2023-02-15T06:01:58;30.17;;;15.68;;
46815;SDS011;32787;53.316;8.670;2023-02-15T06:04:23;31.35;;;16.05;;
46815;SDS011;32787;53.316;8.670;2023-02-15T06:06:49;31.77;;;16.63;;
46815;SDS011;32787;53.316;8.670;2023-02-15T06:09:14;34.95;;;16.70;;
46815;SDS011;32787;53.316;8.670;2023-02-15T06:11:43;30.00;;;15.07;;
46815;SDS011;32787;53.316;8.670;2023-02-15T06:14:09;32.63;;;15.75;;
46815;SDS011;32787;53.316;8.670;2023-02-15T06:16:35;36.83;;;16.35;;
46815;SDS011;32787;53.316;8.670;2023-02-15T06:19:01;35.47;;;17.55;;
46815;SDS011;32787;53.316;8.670;2023-02-15T06:21:28;33.78;;;15.20;;
46815;SDS011;32787;53.316;8.670;2023-02-15T06:23:54;30.90;;;15.68;;
46815;SDS011;32787;53.316;8.670;2023-02-15T06:26:20;30.38;;;15.32;;
46815;SDS011;32787;53.316;8.670;2023-02-15T06:28:45;33.55;;;15.88;;
46815;SDS011;32787;53.316;8.670;2023-02-15T06:31:11;32.47;;;15.15;;
46815;SDS011;32787;53.316;8.670;2023-02-15T06:33:36;26.92;;;14.77;;
46815;SDS011;32787;53.316;8.670;2023-02-15T06:36:03;25.55;;;14.35;;
46815;SDS011;32787;53.316;8.670;2023-02-15T06:38:29;32.67;;;16.85;;
46815;SDS011;32787;53.316;8.670;2023-02-15T06:40:55;28.80;;;15.02;;
46815;SDS011;32787;53.316;8.670;2023-02-15T06:43:20;30.02;;;14.27;;
46815;SDS011;32787;53.316;8.670;2023-02-15T06:45:46;30.25;;;14.52;;
46815;SDS011;32787;53.316;8.670;2023-02-15T06:48:11;29.77;;;15.82;;
46815;SDS011;32787;53.316;8.670;2023-02-15T06:50:37;27.08;;;14.07;;
46815;SDS011;32787;53.316;8.670;2023-02-15T06:53:03;27.58;;;14.57;;
46815;SDS011;32787;53.316;8.670;2023-02-15T06:55:28;27.20;;;15.02;;
46815;SDS011;32787;53.316;8.670;2023-02-15T06:57:54;26.08;;;14.35;;
46815;SDS011;32787;53.316;8.670;2023-02-15T07:00:20;27.77;;;14.32;;
46815;SDS011;32787;53.316;8.670;2023-02-15T07:02:47;32.78;;;14.98;;
46815;SDS011;32787;53.316;8.670;2023-02-15T07:05:12;27.52;;;14.68;;
46815;SDS011;32787;53.316;8.670;2023-02-15T07:07:38;29.02;;;14.70;;
46815;SDS011;32787;53.316;8.670;2023-02-15T07:10:04;27.05;;;14.57;;
46815;SDS011;32787;53.316;8.670;2023-02-15T07:12:30;30.45;;;15.18;;
46815;SDS011;32787;53.316;8.670;2023-02-15T07:15:12;34.47;;;14.70;;
46815;SDS011;32787;53.316;8.670;2023-02-15T07:17:39;27.15;;;14.20;;
46815;SDS011;32787;53.316;8.670;2023-02-15T07:20:15;26.00;;;14.10;;
46815;SDS011;32787;53.316;8.670;2023-02-15T07:22:42;28.25;;;15.07;;
46815;SDS011;32787;53.316;8.670;2023-02-15T07:25:09;28.88;;;15.07;;
46815;SDS011;32787;53.316;8.670;2023-02-15T07:27:37;28.17;;;14.25;;
46815;SDS011;32787;53.316;8.670;2023-02-15T07:30:04;27.85;;;13.93;;
46815;SDS011;32787;53.316;8.670;2023-02-15T07:32:31;28.55;;;14.68;;
46815;SDS011;32787;53.316;8.670;2023-02-15T07:34:58;28.13;;;14.38;;
46815;SDS011;32787;53.316;8.670;2023-02-15T07:37:24;31.05;;;14.88;;
46815;SDS011;32787;53.316;8.670;2023-02-15T07:39:50;30.02;;;15.07;;
46815;SDS011;32787;53.316;8.670;2023-02-15T07:42:15;28.45;;;15.15;;
46815;SDS011;32787;53.316;8.670;2023-02-15T07:44:42;27.45;;;15.73;;
46815;SDS011;32787;53.316;8.670;2023-02-15T07:47:08;29.65;;;15.63;;
46815;SDS011;32787;53.316;8.670;2023-02-15T07:49:34;32.42;;;16.63;;
46815;SDS011;32787;53.316;8.670;2023-02-15T07:52:00;33.08;;;16.20;;
46815;SDS011;32787;53.316;8.670;2023-02-15T07:54:26;30.50;;;14.93;;
46815;SDS011;32787;53.316;8.670;2023-02-15T07:56:52;31.48;;;16.60;;
46815;SDS011;32787;53.316;8.670;2023-02-15T07:59:18;32.75;;;16.70;;
46815;SDS011;32787;53.316;8.670;2023-02-15T08:01:43;34.13;;;16.95;;
46815;SDS011;32787;53.316;8.670;2023-02-15T08:04:09;31.05;;;16.00;;
46815;SDS011;32787;53.316;8.670;2023-02-15T08:06:36;34.67;;;17.77;;
46815;SDS011;32787;53.316;8.670;2023-02-15T08:09:04;38.00;;;17.15;;
46815;SDS011;32787;53.316;8.670;2023-02-15T08:11:32;31.02;;;16.80;;
46815;SDS011;32787;53.316;8.670;2023-02-15T08:19:07;41.38;;;20.30;;
46815;SDS011;32787;53.316;8.670;2023-02-15T08:21:37;33.75;;;18.10;;
46815;SDS011;32787;53.316;8.670;2023-02-15T08:24:04;32.85;;;17.10;;
46815;SDS011;32787;53.316;8.670;2023-02-15T08:26:32;33.67;;;18.30;;
46815;SDS011;32787;53.316;8.670;2023-02-15T08:28:58;32.60;;;17.50;;
46815;SDS011;32787;53.316;8.670;2023-02-15T08:31:24;33.78;;;18.52;;
46815;SDS011;32787;53.316;8.670;2023-02-15T08:33:51;29.77;;;17.58;;
46815;SDS011;32787;53.316;8.670;2023-02-15T08:36:19;39.85;;;18.75;;
46815;SDS011;32787;53.316;8.670;2023-02-15T08:38:46;43.28;;;21.88;;
46815;SDS011;32787;53.316;8.670;2023-02-15T08:41:23;34.28;;;18.02;;
46815;SDS011;32787;53.316;8.670;2023-02-15T08:43:54;32.80;;;18.85;;
46815;SDS011;32787;53.316;8.670;2023-02-15T08:46:22;38.38;;;20.00;;
46815;SDS011;32787;53.316;8.670;2023-02-15T08:48:49;34.97;;;19.73;;
46815;SDS011;32787;53.316;8.670;2023-02-15T08:51:19;38.72;;;19.38;;
46815;SDS011;32787;53.316;8.670;2023-02-15T08:53:47;35.58;;;18.08;;
46815;SDS011;32787;53.316;8.670;2023-02-15T08:56:16;37.27;;;20.50;;
46815;SDS011;32787;53.316;8.670;2023-02-15T08:58:43;38.50;;;20.08;;
46815;SDS011;32787;53.316;8.670;2023-02-15T09:03:35;41.28;;;20.75;;
46815;SDS011;32787;53.316;8.670;2023-02-15T09:06:01;43.85;;;23.35;;
46815;SDS011;32787;53.316;8.670;2023-02-15T09:08:27;44.38;;;21.70;;
46815;SDS011;32787;53.316;8.670;2023-02-15T09:10:53;42.60;;;23.70;;
46815;SDS011;32787;53.316;8.670;2023-02-15T09:13:28;42.55;;;23.08;;
46815;SDS011;32787;53.316;8.670;2023-02-15T09:15:58;54.28;;;25.67;;
46815;SDS011;32787;53.316;8.670;2023-02-15T09:18:25;50.20;;;25.15;;
46815;SDS011;32787;53.316;8.670;2023-02-15T09:20:50;45.78;;;24.50;;
46815;SDS011;32787;53.316;8.670;2023-02-15T09:23:16;51.25;;;24.90;;
46815;SDS011;32787;53.316;8.670;2023-02-15T09:25:42;57.63;;;28.10;;
46815;SDS011;32787;53.316;8.670;2023-02-15T09:28:08;52.13;;;26.55;;
46815;SDS011;32787;53.316;8.670;2023-02-15T09:30:33;53.10;;;27.23;;
46815;SDS011;32787;53.316;8.670;2023-02-15T09:32:59;52.45;;;27.65;;
46815;SDS011;32787;53.316;8.670;2023-02-15T09:35:25;63.38;;;32.65;;
46815;SDS011;32787;53.316;8.670;2023-02-15T09:37:50;55.92;;;31.45;;
46815;SDS011;32787;53.316;8.670;2023-02-15T09:40:16;61.88;;;30.70;;
46815;SDS011;32787;53.316;8.670;2023-02-15T09:45:44;57.53;;;30.58;;
46815;SDS011;32787;53.316;8.670;2023-02-15T09:54:17;55.30;;;28.60;;
46815;SDS011;32787;53.316;8.670;2023-02-15T09:57:24;62.03;;;32.97;;
46815;SDS011;32787;53.316;8.670;2023-02-15T10:00:12;62.50;;;33.70;;
46815;SDS011;32787;53.316;8.670;2023-02-15T10:10:40;65.55;;;35.78;;
46815;SDS011;32787;53.316;8.670;2023-02-15T10:18:44;69.63;;;35.97;;
46815;SDS011;32787;53.316;8.670;2023-02-15T10:27:11;69.22;;;36.72;;
46815;SDS011;32787;53.316;8.670;2023-02-15T10:29:39;62.25;;;35.28;;
46815;SDS011;32787;53.316;8.670;2023-02-15T10:32:26;64.82;;;35.40;;
46815;SDS011;32787;53.316;8.670;2023-02-15T10:35:00;59.67;;;35.17;;
46815;SDS011;32787;53.316;8.670;2023-02-15T10:51:03;58.80;;;32.50;;
46815;SDS011;32787;53.316;8.670;2023-02-15T11:01:53;54.27;;;30.20;;
46815;SDS011;32787;53.316;8.670;2023-02-15T11:06:59;52.40;;;31.58;;
46815;SDS011;32787;53.316;8.670;2023-02-15T11:09:33;53.15;;;31.35;;
46815;SDS011;32787;53.316;8.670;2023-02-15T11:12:04;55.88;;;31.75;;
46815;SDS011;32787;53.316;8.670;2023-02-15T11:14:43;55.15;;;32.72;;
46815;SDS011;32787;53.316;8.670;2023-02-15T11:17:19;58.10;;;31.63;;
46815;SDS011;32787;53.316;8.670;2023-02-15T11:22:21;51.40;;;29.73;;
46815;SDS011;32787;53.316;8.670;2023-02-15T11:24:47;50.28;;;31.38;;
46815;SDS011;32787;53.316;8.670;2023-02-15T11:27:18;58.58;;;32.13;;
46815;SDS011;32787;53.316;8.670;2023-02-15T11:29:54;53.08;;;31.55;;
46815;SDS011;32787;53.316;8.670;2023-02-15T11:32:44;47.35;;;29.50;;
46815;SDS011;32787;53.316;8.670;2023-02-15T11:35:29;55.63;;;32.75;;
46815;SDS011;32787;53.316;8.670;2023-02-15T11:40:54;52.85;;;29.83;;
46815;SDS011;32787;53.316;8.670;2023-02-15T11:43:38;49.15;;;29.92;;
46815;SDS011;32787;53.316;8.670;2023-02-15T11:46:10;52.72;;;29.17;;
46815;SDS011;32787;53.316;8.670;2023-02-15T11:48:37;48.78;;;29.05;;
46815;SDS011;32787;53.316;8.670;2023-02-15T11:51:04;47.90;;;28.50;;
46815;SDS011;32787;53.316;8.670;2023-02-15T11:53:34;52.05;;;30.92;;
46815;SDS011;32787;53.316;8.670;2023-02-15T11:56:02;52.58;;;29.38;;
46815;SDS011;32787;53.316;8.670;2023-02-15T11:58:36;48.65;;;29.25;;
46815;SDS011;32787;53.316;8.670;2023-02-15T12:03:59;50.80;;;31.65;;
46815;SDS011;32787;53.316;8.670;2023-02-15T12:06:36;54.38;;;31.02;;
46815;SDS011;32787;53.316;8.670;2023-02-15T12:11:36;48.88;;;29.38;;
46815;SDS011;32787;53.316;8.670;2023-02-15T12:14:04;50.40;;;30.65;;
46815;SDS011;32787;53.316;8.670;2023-02-15T12:16:33;52.70;;;30.80;;
46815;SDS011;32787;53.316;8.670;2023-02-15T12:19:32;55.17;;;31.00;;
46815;SDS011;32787;53.316;8.670;2023-02-15T12:21:59;51.95;;;31.35;;
46815;SDS011;32787;53.316;8.670;2023-02-15T12:24:30;48.85;;;30.70;;
46815;SDS011;32787;53.316;8.670;2023-02-15T12:27:02;57.83;;;32.53;;
46815;SDS011;32787;53.316;8.670;2023-02-15T12:29:40;53.85;;;31.85;;
46815;SDS011;32787;53.316;8.670;2023-02-15T12:32:10;53.97;;;31.90;;
46815;SDS011;32787;53.316;8.670;2023-02-15T12:34:43;50.33;;;30.60;;
46815;SDS011;32787;53.316;8.670;2023-02-15T12:37:15;53.95;;;32.33;;
46815;SDS011;32787;53.316;8.670;2023-02-15T12:39:51;49.25;;;28.88;;
46815;SDS011;32787;53.316;8.670;2023-02-15T12:42:20;53.78;;;30.05;;
46815;SDS011;32787;53.316;8.670;2023-02-15T12:44:57;49.47;;;29.77;;
46815;SDS011;32787;53.316;8.670;2023-02-15T12:47:25;49.40;;;28.95;;
46815;SDS011;32787;53.316;8.670;2023-02-15T12:52:47;50.80;;;28.95;;
46815;SDS011;32787;53.316;8.670;2023-02-15T12:55:25;48.85;;;31.10;;
46815;SDS011;32787;53.316;8.670;2023-02-15T13:00:32;49.97;;;28.95;;
46815;SDS011;32787;53.316;8.670;2023-02-15T13:02:58;50.35;;;28.48;;
46815;SDS011;32787;53.316;8.670;2023-02-15T13:05:32;48.85;;;28.73;;
46815;SDS011;32787;53.316;8.670;2023-02-15T13:10:42;46.00;;;27.58;;
46815;SDS011;32787;53.316;8.670;2023-02-15T13:13:19;46.97;;;28.05;;
46815;SDS011;32787;53.316;8.670;2023-02-15T13:15:48;47.08;;;27.95;;
46815;SDS011;32787;53.316;8.670;2023-02-15T13:18:19;45.50;;;28.52;;
46815;SDS011;32787;53.316;8.670;2023-02-15T13:21:20;45.58;;;29.45;;
46815;SDS011;32787;53.316;8.670;2023-02-15T13:23:54;48.95;;;28.77;;
46815;SDS011;32787;53.316;8.670;2023-02-15T13:26:26;46.42;;;28.75;;
46815;SDS011;32787;53.316;8.670;2023-02-15T13:28:58;46.03;;;28.42;;
46815;SDS011;32787;53.316;8.670;2023-02-15T13:31:33;45.53;;;29.33;;
46815;SDS011;32787;53.316;8.670;2023-02-15T13:34:08;48.05;;;29.42;;
46815;SDS011;32787;53.316;8.670;2023-02-15T13:36:45;47.78;;;30.55;;
46815;SDS011;32787;53.316;8.670;2023-02-15T13:39:24;46.67;;;29.88;;
46815;SDS011;32787;53.316;8.670;2023-02-15T13:42:13;50.72;;;29.70;;
46815;SDS011;32787;53.316;8.670;2023-02-15T13:47:42;49.15;;;29.80;;
46815;SDS011;32787;53.316;8.670;2023-02-15T13:50:51;53.20;;;31.40;;
46815;SDS011;32787;53.316;8.670;2023-02-15T13:56:09;51.55;;;31.08;;
46815;SDS011;32787;53.316;8.670;2023-02-15T14:07:19;52.03;;;31.33;;
46815;SDS011;32787;53.316;8.670;2023-02-15T14:23:38;52.92;;;31.67;;
46815;SDS011;32787;53.316;8.670;2023-02-15T14:29:52;54.45;;;31.88;;
46815;SDS011;32787;53.316;8.670;2023-02-15T14:32:21;51.78;;;31.10;;
46815;SDS011;32787;53.316;8.670;2023-02-15T14:34:55;48.97;;;30.48;;
46815;SDS011;32787;53.316;8.670;2023-02-15T14:43:21;53.50;;;29.85;;
46815;SDS011;32787;53.316;8.670;2023-02-15T14:48:53;52.60;;;31.52;;
46815;SDS011;32787;53.316;8.670;2023-02-15T14:52:06;51.85;;;31.88;;
46815;SDS011;32787;53.316;8.670;2023-02-15T14:56:41;48.30;;;30.67;;
46815;SDS011;32787;53.316;8.670;2023-02-15T14:59:14;48.20;;;30.25;;
46815;SDS011;32787;53.316;8.670;2023-02-15T15:01:57;52.83;;;30.65;;
46815;SDS011;32787;53.316;8.670;2023-02-15T15:10:03;52.85;;;30.80;;
46815;SDS011;32787;53.316;8.670;2023-02-15T15:15:16;51.30;;;30.42;;
46815;SDS011;32787;53.316;8.670;2023-02-15T15:18:06;48.15;;;28.67;;
46815;SDS011;32787;53.316;8.670;2023-02-15T15:25:42;51.72;;;30.60;;
46815;SDS011;32787;53.316;8.670;2023-02-15T15:28:11;54.30;;;31.75;;
46815;SDS011;32787;53.316;8.670;2023-02-15T15:45:08;51.10;;;30.98;;
46815;SDS011;32787;53.316;8.670;2023-02-15T15:50:40;51.67;;;31.70;;
46815;SDS011;32787;53.316;8.670;2023-02-15T15:53:06;55.75;;;31.90;;
46815;SDS011;32787;53.316;8.670;2023-02-15T15:55:45;59.92;;;33.35;;
46815;SDS011;32787;53.316;8.670;2023-02-15T15:58:13;57.22;;;34.03;;
46815;SDS011;32787;53.316;8.670;2023-02-15T16:03:28;53.38;;;33.08;;
46815;SDS011;32787;53.316;8.670;2023-02-15T16:05:54;61.60;;;33.63;;
46815;SDS011;32787;53.316;8.670;2023-02-15T16:08:31;60.05;;;33.58;;
46815;SDS011;32787;53.316;8.670;2023-02-15T16:11:22;59.17;;;34.25;;
46815;SDS011;32787;53.316;8.670;2023-02-15T16:13:52;61.15;;;35.60;;
46815;SDS011;32787;53.316;8.670;2023-02-15T16:16:22;54.53;;;32.78;;
46815;SDS011;32787;53.316;8.670;2023-02-15T16:18:52;57.42;;;34.47;;
46815;SDS011;32787;53.316;8.670;2023-02-15T16:21:33;63.00;;;34.55;;
46815;SDS011;32787;53.316;8.670;2023-02-15T16:29:14;57.30;;;33.60;;
46815;SDS011;32787;53.316;8.670;2023-02-15T16:31:41;59.33;;;34.10;;
46815;SDS011;32787;53.316;8.670;2023-02-15T16:34:09;61.42;;;34.42;;
46815;SDS011;32787;53.316;8.670;2023-02-15T16:36:40;59.35;;;34.58;;
46815;SDS011;32787;53.316;8.670;2023-02-15T16:39:07;57.08;;;32.72;;
46815;SDS011;32787;53.316;8.670;2023-02-15T16:41:35;59.72;;;32.97;;
46815;SDS011;32787;53.316;8.670;2023-02-15T16:44:04;54.58;;;32.38;;
46815;SDS011;32787;53.316;8.670;2023-02-15T16:46:41;54.47;;;31.65;;
46815;SDS011;32787;53.316;8.670;2023-02-15T16:51:44;54.10;;;30.98;;
46815;SDS011;32787;53.316;8.670;2023-02-15T16:54:24;64.00;;;32.38;;
46815;SDS011;32787;53.316;8.670;2023-02-15T16:56:51;74.22;;;37.78;;
46815;SDS011;32787;53.316;8.670;2023-02-15T17:02:18;64.90;;;33.35;;
46815;SDS011;32787;53.316;8.670;2023-02-15T17:05:00;72.25;;;36.97;;
46815;SDS011;32787;53.316;8.670;2023-02-15T17:07:31;56.05;;;31.20;;
46815;SDS011;32787;53.316;8.670;2023-02-15T17:09:58;57.33;;;32.05;;
46815;SDS011;32787;53.316;8.670;2023-02-15T17:18:39;67.50;;;36.13;;
46815;SDS011;32787;53.316;8.670;2023-02-15T17:21:10;70.03;;;35.90;;
46815;SDS011;32787;53.316;8.670;2023-02-15T17:23:47;60.22;;;33.05;;
46815;SDS011;32787;53.316;8.670;2023-02-15T17:26:24;67.20;;;33.03;;
46815;SDS011;32787;53.316;8.670;2023-02-15T17:29:01;61.90;;;31.50;;
46815;SDS011;32787;53.316;8.670;2023-02-15T17:31:36;63.55;;;32.33;;
46815;SDS011;32787;53.316;8.670;2023-02-15T17:34:02;63.20;;;34.30;;
46815;SDS011;32787;53.316;8.670;2023-02-15T17:36:28;64.80;;;33.22;;
46815;SDS011;32787;53.316;8.670;2023-02-15T17:43:54;58.38;;;29.20;;
46815;SDS011;32787;53.316;8.670;2023-02-15T17:46:20;63.53;;;30.15;;
46815;SDS011;32787;53.316;8.670;2023-02-15T17:48:49;57.70;;;31.23;;
46815;SDS011;32787;53.316;8.670;2023-02-15T17:51:19;58.10;;;31.27;;
46815;SDS011;32787;53.316;8.670;2023-02-15T17:53:46;60.25;;;28.85;;
46815;SDS011;32787;53.316;8.670;2023-02-15T17:56:33;56.28;;;28.98;;
46815;SDS011;32787;53.316;8.670;2023-02-15T17:59:00;54.38;;;29.23;;
46815;SDS011;32787;53.316;8.670;2023-02-15T18:01:25;53.50;;;29.45;;
46815;SDS011;32787;53.316;8.670;2023-02-15T18:04:13;50.97;;;27.30;;